Time;durP1;ratioP1;P1;durP2;ratioP2;P2;SDS_P1;SDS_P2;PMS_P1;PMS_P2;Temp;Humidity;BMP_temperature;BMP_pressure;BME280_temperature;BME280_humidity;BME280_pressure;Samples;Min_cycle;Max_cycle;Signal;HPM_P1;HPM_P2
2021/12/14 00:00:22;;;;;;;398.88;73.40;;;;;;;;;;5064780;28;20209;-67
2021/12/14 00:02:50;;;;;;;388.65;71.82;;;;;;;;;;5070597;28;20735;-67
2021/12/14 00:05:19;;;;;;;392.17;71.63;;;;;;;;;;5070966;28;20210;-67
2021/12/14 00:07:48;;;;;;;404.13;78.63;;;;;;;;;;5070701;28;20823;-67
2021/12/14 00:10:32;;;;;;;391.98;74.53;;;;;;;;;;5070871;28;20233;-66
2021/12/14 00:13:06;;;;;;;401.90;73.50;;;;;;;;;;5071046;28;20211;-67
2021/12/14 00:15:33;;;;;;;408.25;75.15;;;;;;;;;;5070874;28;20279;-67
2021/12/14 00:18:04;;;;;;;399.17;73.50;;;;;;;;;;5070574;28;20208;-69
2021/12/14 00:20:35;;;;;;;406.38;74.53;;;;;;;;;;5071431;28;20291;-66
2021/12/14 00:25:50;;;;;;;408.98;78.15;;;;;;;;;;5070678;28;20219;-67
2021/12/14 00:28:20;;;;;;;394.48;73.05;;;;;;;;;;5070687;28;20208;-67
2021/12/14 00:30:48;;;;;;;400.05;73.47;;;;;;;;;;5070685;28;20208;-68
2021/12/14 00:33:18;;;;;;;413.27;76.15;;;;;;;;;;5070934;28;20307;-66
2021/12/14 00:35:46;;;;;;;420.60;78.05;;;;;;;;;;5070692;28;20291;-66
2021/12/14 00:38:15;;;;;;;404.52;73.57;;;;;;;;;;5070562;28;20205;-67
2021/12/14 00:40:44;;;;;;;398.88;74.05;;;;;;;;;;5070717;28;20578;-67
2021/12/14 00:43:13;;;;;;;402.13;75.55;;;;;;;;;;5073527;28;20678;-67
2021/12/14 00:45:42;;;;;;;409.48;78.82;;;;;;;;;;5074522;28;20212;-67
2021/12/14 00:48:10;;;;;;;402.05;73.70;;;;;;;;;;5074794;28;20658;-67
2021/12/14 00:50:38;;;;;;;399.80;73.82;;;;;;;;;;5067870;28;20298;-67
2021/12/14 00:53:06;;;;;;;401.85;72.57;;;;;;;;;;5074725;28;20230;-67
2021/12/14 00:55:36;;;;;;;406.63;74.65;;;;;;;;;;5074642;28;20239;-67
2021/12/14 00:58:04;;;;;;;400.65;72.75;;;;;;;;;;5074757;28;20204;-67
2021/12/14 01:00:34;;;;;;;400.33;74.85;;;;;;;;;;5074621;28;20220;-67
2021/12/14 01:03:04;;;;;;;405.25;73.25;;;;;;;;;;5074024;28;20235;-67
2021/12/14 01:05:32;;;;;;;404.15;75.70;;;;;;;;;;5074317;28;20200;-67
2021/12/14 01:08:00;;;;;;;401.08;72.85;;;;;;;;;;5074192;28;20200;-67
2021/12/14 01:10:31;;;;;;;407.95;75.20;;;;;;;;;;5074252;28;20244;-68
2021/12/14 01:13:06;;;;;;;396.80;73.15;;;;;;;;;;5074222;28;20212;-67
2021/12/14 01:15:51;;;;;;;407.75;73.80;;;;;;;;;;5074713;28;20234;-67
2021/12/14 01:18:30;;;;;;;410.55;75.85;;;;;;;;;;5074125;28;20231;-69
2021/12/14 01:21:03;;;;;;;411.70;75.53;;;;;;;;;;5075162;28;20213;-67
2021/12/14 01:23:34;;;;;;;407.58;74.70;;;;;;;;;;5074557;28;20223;-66
2021/12/14 01:26:08;;;;;;;407.13;74.95;;;;;;;;;;5073972;28;20208;-66
2021/12/14 01:28:36;;;;;;;400.63;74.00;;;;;;;;;;5074068;28;20781;-67
2021/12/14 01:31:11;;;;;;;412.02;76.57;;;;;;;;;;5073743;28;20215;-67
2021/12/14 01:33:39;;;;;;;404.90;74.30;;;;;;;;;;5073918;28;20215;-70
2021/12/14 01:36:21;;;;;;;398.20;73.88;;;;;;;;;;5073584;28;20323;-66
2021/12/14 01:39:08;;;;;;;402.58;75.18;;;;;;;;;;5073811;28;20208;-67
2021/12/14 01:41:36;;;;;;;402.10;74.13;;;;;;;;;;5073552;28;20666;-66
2021/12/14 01:44:04;;;;;;;407.45;75.47;;;;;;;;;;5073796;28;20208;-67
2021/12/14 01:46:34;;;;;;;390.70;74.15;;;;;;;;;;5073690;28;20212;-67
2021/12/14 01:49:06;;;;;;;381.42;71.13;;;;;;;;;;5073665;28;20204;-66
2021/12/14 01:51:34;;;;;;;396.40;73.78;;;;;;;;;;5073545;28;20206;-66
2021/12/14 01:54:02;;;;;;;395.42;75.55;;;;;;;;;;5073218;28;20240;-67
2021/12/14 01:56:31;;;;;;;389.42;71.28;;;;;;;;;;5073486;28;20224;-67
2021/12/14 01:59:00;;;;;;;394.50;72.35;;;;;;;;;;5073453;28;20285;-67
2021/12/14 02:01:36;;;;;;;403.20;75.35;;;;;;;;;;5066045;28;20670;-67
2021/12/14 02:04:09;;;;;;;421.17;76.63;;;;;;;;;;5073327;28;20211;-68
2021/12/14 02:06:37;;;;;;;392.58;72.20;;;;;;;;;;5066532;28;20219;-67
2021/12/14 02:09:06;;;;;;;395.38;73.20;;;;;;;;;;5073364;28;20235;-67
2021/12/14 02:11:34;;;;;;;367.65;71.72;;;;;;;;;;5073257;28;20236;-67
2021/12/14 02:14:02;;;;;;;402.88;72.85;;;;;;;;;;5072812;28;20217;-66
2021/12/14 02:16:30;;;;;;;392.98;72.32;;;;;;;;;;5072904;28;20237;-67
2021/12/14 02:18:59;;;;;;;395.75;74.10;;;;;;;;;;5073030;28;20732;-69
2021/12/14 02:21:29;;;;;;;402.83;75.15;;;;;;;;;;5072891;28;20217;-66
2021/12/14 02:23:57;;;;;;;403.60;77.05;;;;;;;;;;5072886;28;20212;-67
2021/12/14 02:26:26;;;;;;;411.73;74.40;;;;;;;;;;5073076;28;20220;-66
2021/12/14 02:28:54;;;;;;;400.83;74.32;;;;;;;;;;5072879;28;20208;-68
2021/12/14 02:31:23;;;;;;;392.95;70.90;;;;;;;;;;5066535;28;20295;-67
2021/12/14 02:33:51;;;;;;;405.95;78.55;;;;;;;;;;5072677;28;20216;-67
2021/12/14 02:36:21;;;;;;;410.15;75.32;;;;;;;;;;5072563;28;20267;-67
2021/12/14 02:38:55;;;;;;;401.98;74.70;;;;;;;;;;5072540;28;20287;-67
2021/12/14 02:41:23;;;;;;;399.52;71.45;;;;;;;;;;5072974;28;20211;-68
2021/12/14 02:43:52;;;;;;;388.55;74.22;;;;;;;;;;5072263;28;20204;-66
2021/12/14 02:46:20;;;;;;;396.85;73.30;;;;;;;;;;5072662;28;20243;-67
2021/12/14 02:48:49;;;;;;;397.98;71.35;;;;;;;;;;5072346;28;20208;-67
2021/12/14 02:51:18;;;;;;;411.90;72.65;;;;;;;;;;5072594;28;20744;-67
2021/12/14 02:53:47;;;;;;;414.02;77.20;;;;;;;;;;5072346;28;20662;-67
2021/12/14 02:56:17;;;;;;;406.38;71.18;;;;;;;;;;5072226;28;20232;-66
2021/12/14 02:58:45;;;;;;;394.92;71.03;;;;;;;;;;5072134;28;20215;-67
2021/12/14 03:01:13;;;;;;;391.13;67.10;;;;;;;;;;5065374;28;20216;-66
2021/12/14 03:03:40;;;;;;;407.67;71.60;;;;;;;;;;5071800;28;20291;-67
2021/12/14 03:06:10;;;;;;;400.00;69.90;;;;;;;;;;5071495;28;20213;-67
2021/12/14 03:08:45;;;;;;;389.70;69.32;;;;;;;;;;5072175;28;20690;-69
2021/12/14 03:11:14;;;;;;;395.52;68.60;;;;;;;;;;5073244;28;20240;-67
2021/12/14 03:13:44;;;;;;;400.75;72.55;;;;;;;;;;5071987;28;20201;-66
2021/12/14 03:16:15;;;;;;;385.95;66.60;;;;;;;;;;5071931;28;20231;-67
2021/12/14 03:18:44;;;;;;;402.25;71.53;;;;;;;;;;5071789;28;20299;-67
2021/12/14 03:21:13;;;;;;;364.17;66.50;;;;;;;;;;5071760;28;20207;-66
2021/12/14 03:23:41;;;;;;;388.58;69.80;;;;;;;;;;5071452;28;20212;-67
2021/12/14 03:26:10;;;;;;;402.15;73.00;;;;;;;;;;5071921;28;20566;-68
2021/12/14 03:28:38;;;;;;;378.48;69.55;;;;;;;;;;5071891;28;20247;-66
2021/12/14 03:31:23;;;;;;;389.38;70.43;;;;;;;;;;5065044;28;20291;-66
2021/12/14 03:33:54;;;;;;;385.52;73.88;;;;;;;;;;5071403;28;20211;-67
2021/12/14 03:36:25;;;;;;;385.90;69.43;;;;;;;;;;5071374;28;20201;-66
2021/12/14 03:38:54;;;;;;;381.40;69.30;;;;;;;;;;5071696;28;20208;-67
2021/12/14 03:41:23;;;;;;;387.85;69.57;;;;;;;;;;5071636;28;20214;-67
2021/12/14 03:43:53;;;;;;;387.00;73.90;;;;;;;;;;5064622;28;20299;-67
2021/12/14 03:46:21;;;;;;;393.63;70.18;;;;;;;;;;5071265;28;20199;-68
2021/12/14 03:48:48;;;;;;;402.77;71.07;;;;;;;;;;5071281;28;20212;-67
2021/12/14 03:51:22;;;;;;;348.85;64.90;;;;;;;;;;5071573;28;20304;-66
2021/12/14 03:53:50;;;;;;;389.35;75.53;;;;;;;;;;5071112;28;20204;-67
2021/12/14 03:56:18;;;;;;;383.95;68.35;;;;;;;;;;5071168;28;20208;-66
2021/12/14 03:58:45;;;;;;;393.38;71.10;;;;;;;;;;5071048;28;20686;-67
2021/12/14 04:01:14;;;;;;;390.33;74.05;;;;;;;;;;5070964;28;20308;-67
2021/12/14 04:03:42;;;;;;;407.95;77.22;;;;;;;;;;5070868;28;20216;-67
2021/12/14 04:06:10;;;;;;;383.80;70.45;;;;;;;;;;5071085;28;20658;-67
2021/12/14 04:08:40;;;;;;;385.35;69.78;;;;;;;;;;5070997;28;20212;-67
2021/12/14 04:11:08;;;;;;;398.25;70.93;;;;;;;;;;5063855;28;20232;-67
2021/12/14 04:13:37;;;;;;;351.35;68.00;;;;;;;;;;5070795;28;20212;-67
2021/12/14 04:16:05;;;;;;;344.20;66.70;;;;;;;;;;5070324;28;20598;-67
2021/12/14 04:18:33;;;;;;;349.02;67.97;;;;;;;;;;5070643;28;20236;-67
2021/12/14 04:21:01;;;;;;;381.27;68.70;;;;;;;;;;5070815;28;20218;-67
2021/12/14 04:23:30;;;;;;;368.02;67.28;;;;;;;;;;5070731;28;20212;-68
2021/12/14 04:25:59;;;;;;;341.10;74.28;;;;;;;;;;5070406;28;20208;-67
2021/12/14 04:28:30;;;;;;;332.35;66.30;;;;;;;;;;5070753;28;20723;-67
2021/12/14 04:30:58;;;;;;;362.40;67.38;;;;;;;;;;5070723;28;20216;-68
2021/12/14 04:33:27;;;;;;;406.42;71.45;;;;;;;;;;5070665;28;20634;-68
2021/12/14 04:35:55;;;;;;;394.83;76.18;;;;;;;;;;5070587;28;20287;-67
2021/12/14 04:38:27;;;;;;;401.20;71.97;;;;;;;;;;5070497;28;20282;-67
2021/12/14 04:52:06;;;;;;;386.48;70.35;;;;;;;;;;5070680;28;20680;-67
2021/12/14 04:54:37;;;;;;;397.88;69.43;;;;;;;;;;5070552;28;20215;-68
2021/12/14 04:57:05;;;;;;;407.20;72.88;;;;;;;;;;5070374;28;20701;-67
2021/12/14 04:59:35;;;;;;;410.33;72.80;;;;;;;;;;5070274;28;20209;-66
2021/12/14 05:02:08;;;;;;;385.88;68.97;;;;;;;;;;5069845;28;20234;-68
2021/12/14 05:04:36;;;;;;;399.30;71.68;;;;;;;;;;5070607;28;20204;-66
2021/12/14 05:07:25;;;;;;;393.35;70.30;;;;;;;;;;5070439;28;20212;-68
2021/12/14 05:09:50;;;;;;;400.13;76.35;;;;;;;;;;5069765;28;20770;-67
2021/12/14 05:12:19;;;;;;;389.65;69.43;;;;;;;;;;5070383;28;20685;-67
2021/12/14 05:14:49;;;;;;;391.45;72.00;;;;;;;;;;5070523;28;20243;-67
2021/12/14 05:17:17;;;;;;;372.63;68.75;;;;;;;;;;5070310;28;20224;-66
2021/12/14 05:19:46;;;;;;;373.85;67.38;;;;;;;;;;5070082;28;20208;-67
2021/12/14 05:22:15;;;;;;;402.50;71.07;;;;;;;;;;5070363;28;20295;-67
2021/12/14 05:24:45;;;;;;;395.35;71.07;;;;;;;;;;5070140;28;20295;-69
2021/12/14 05:27:16;;;;;;;400.45;71.68;;;;;;;;;;5069961;28;20294;-68
2021/12/14 05:29:43;;;;;;;366.63;68.97;;;;;;;;;;5073530;28;20212;-68
2021/12/14 05:32:15;;;;;;;358.63;67.68;;;;;;;;;;5074188;28;20240;-67
2021/12/14 05:34:46;;;;;;;393.55;69.25;;;;;;;;;;5067621;28;20213;-67
2021/12/14 05:37:18;;;;;;;364.92;68.28;;;;;;;;;;5073816;28;20239;-67
2021/12/14 05:39:52;;;;;;;359.10;66.50;;;;;;;;;;5073738;28;20723;-67
2021/12/14 05:45:07;;;;;;;404.13;71.78;;;;;;;;;;5073811;28;20688;-67
2021/12/14 05:47:41;;;;;;;389.40;67.60;;;;;;;;;;5073668;28;20204;-68
2021/12/14 05:50:09;;;;;;;387.38;67.35;;;;;;;;;;5068077;28;20246;-67
2021/12/14 05:52:36;;;;;;;381.98;67.22;;;;;;;;;;5067168;28;20240;-66
2021/12/14 05:55:04;;;;;;;392.23;68.20;;;;;;;;;;5073376;28;20654;-67
2021/12/14 05:57:32;;;;;;;382.05;65.93;;;;;;;;;;5073241;28;20232;-67
2021/12/14 05:59:59;;;;;;;377.30;66.80;;;;;;;;;;5072991;28;20661;-67
2021/12/14 06:02:27;;;;;;;360.08;61.55;;;;;;;;;;5073135;28;20228;-66
2021/12/14 06:04:56;;;;;;;373.40;68.82;;;;;;;;;;5073243;28;20208;-67
2021/12/14 06:07:25;;;;;;;369.67;65.13;;;;;;;;;;5073145;28;20286;-67
2021/12/14 06:09:53;;;;;;;381.98;70.80;;;;;;;;;;5073116;28;20705;-66
2021/12/14 06:12:22;;;;;;;378.65;68.75;;;;;;;;;;5073074;28;20208;-67
2021/12/14 06:14:53;;;;;;;377.63;67.88;;;;;;;;;;5073186;28;20717;-68
2021/12/14 06:17:26;;;;;;;387.90;65.38;;;;;;;;;;5066789;28;20232;-67
2021/12/14 06:19:55;;;;;;;382.90;71.90;;;;;;;;;;5066186;28;20209;-67
2021/12/14 06:22:25;;;;;;;387.48;69.65;;;;;;;;;;5072969;28;20211;-66
2021/12/14 06:24:53;;;;;;;385.80;68.18;;;;;;;;;;5072704;28;20201;-67
2021/12/14 06:27:21;;;;;;;394.95;71.47;;;;;;;;;;5073026;28;20290;-67
2021/12/14 06:29:50;;;;;;;381.15;67.55;;;;;;;;;;5072601;28;20212;-66
2021/12/14 06:32:19;;;;;;;370.83;63.88;;;;;;;;;;5072880;28;20205;-67
2021/12/14 06:34:49;;;;;;;382.38;68.05;;;;;;;;;;5072756;28;20216;-66
2021/12/14 06:38:06;;;;;;;370.92;63.95;;;;;;;;;;5072484;28;20212;-67
2021/12/14 06:40:36;;;;;;;384.27;67.40;;;;;;;;;;5071739;28;20291;-69
2021/12/14 06:43:05;;;;;;;376.73;66.53;;;;;;;;;;5072688;28;20218;-67
2021/12/14 06:45:34;;;;;;;368.85;63.75;;;;;;;;;;5072561;28;20237;-67
2021/12/14 06:48:06;;;;;;;387.92;67.63;;;;;;;;;;5065570;28;20212;-66
2021/12/14 06:50:37;;;;;;;382.60;68.40;;;;;;;;;;5065844;28;20205;-67
2021/12/14 06:53:06;;;;;;;387.85;68.68;;;;;;;;;;5072417;28;20673;-67
2021/12/14 06:55:36;;;;;;;390.33;69.43;;;;;;;;;;5072475;28;20559;-67
2021/12/14 06:58:11;;;;;;;392.02;69.20;;;;;;;;;;5072097;28;20232;-67
2021/12/14 07:00:41;;;;;;;383.67;69.30;;;;;;;;;;5072456;28;20295;-67
2021/12/14 07:03:08;;;;;;;390.35;71.93;;;;;;;;;;5072037;28;20670;-67
2021/12/14 07:05:36;;;;;;;397.13;71.10;;;;;;;;;;5072126;28;20212;-66
2021/12/14 07:08:09;;;;;;;389.10;69.35;;;;;;;;;;5072329;28;20244;-68
2021/12/14 07:10:39;;;;;;;395.30;71.15;;;;;;;;;;5071876;28;20235;-67
2021/12/14 07:13:16;;;;;;;387.17;70.10;;;;;;;;;;5071921;28;20665;-66
2021/12/14 07:15:44;;;;;;;380.73;69.90;;;;;;;;;;5071624;28;20831;-67
2021/12/14 07:18:12;;;;;;;380.52;67.65;;;;;;;;;;5071821;28;20232;-67
2021/12/14 07:20:41;;;;;;;395.27;71.20;;;;;;;;;;5071784;28;20211;-67
2021/12/14 07:23:19;;;;;;;374.05;67.35;;;;;;;;;;5071766;28;20617;-67
2021/12/14 07:25:51;;;;;;;376.48;66.20;;;;;;;;;;5071825;28;20214;-66
2021/12/14 07:28:19;;;;;;;388.15;70.63;;;;;;;;;;5071677;28;20692;-67
2021/12/14 07:30:48;;;;;;;380.30;66.50;;;;;;;;;;5071708;28;20202;-66
2021/12/14 07:33:16;;;;;;;396.73;71.07;;;;;;;;;;5071693;28;20295;-67
2021/12/14 07:35:48;;;;;;;395.95;74.90;;;;;;;;;;5071139;28;20216;-67
2021/12/14 07:38:25;;;;;;;381.92;67.60;;;;;;;;;;5071330;28;20232;-66
2021/12/14 07:40:55;;;;;;;388.45;69.07;;;;;;;;;;5064681;28;20200;-66
2021/12/14 07:43:24;;;;;;;377.15;66.82;;;;;;;;;;5071300;28;20200;-66
2021/12/14 07:45:54;;;;;;;398.98;74.32;;;;;;;;;;5071133;28;20676;-66
2021/12/14 07:48:24;;;;;;;389.15;70.22;;;;;;;;;;5071371;28;20216;-66
2021/12/14 07:50:55;;;;;;;379.65;68.10;;;;;;;;;;5071337;28;20729;-66
2021/12/14 07:53:33;;;;;;;378.00;67.43;;;;;;;;;;5071562;28;20641;-66
2021/12/14 07:56:02;;;;;;;377.83;67.65;;;;;;;;;;5071061;28;20205;-67
2021/12/14 07:58:34;;;;;;;389.25;71.13;;;;;;;;;;5070914;28;20236;-68
2021/12/14 08:01:02;;;;;;;381.95;68.43;;;;;;;;;;5071238;28;20210;-66
2021/12/14 08:03:33;;;;;;;380.20;71.05;;;;;;;;;;5070766;28;20234;-67
2021/12/14 08:06:01;;;;;;;377.63;66.20;;;;;;;;;;5071254;28;20205;-67
2021/12/14 08:08:40;;;;;;;382.80;69.43;;;;;;;;;;5070898;28;20777;-68
2021/12/14 08:11:29;;;;;;;381.17;67.82;;;;;;;;;;5070729;28;20236;-67
2021/12/14 08:13:57;;;;;;;393.17;74.47;;;;;;;;;;5070687;28;20587;-66
2021/12/14 08:16:25;;;;;;;388.48;69.32;;;;;;;;;;5071212;28;20299;-66
2021/12/14 08:18:53;;;;;;;387.63;69.22;;;;;;;;;;5070871;28;20267;-66
2021/12/14 08:21:22;;;;;;;384.85;68.38;;;;;;;;;;5070855;28;20684;-67
2021/12/14 08:23:54;;;;;;;378.73;69.97;;;;;;;;;;5070502;28;20688;-67
2021/12/14 08:26:24;;;;;;;368.08;66.13;;;;;;;;;;5071170;28;20213;-67
2021/12/14 08:28:54;;;;;;;381.02;68.00;;;;;;;;;;5070801;28;20216;-66
2021/12/14 08:31:23;;;;;;;378.20;65.00;;;;;;;;;;5070842;28;20209;-67
2021/12/14 08:33:55;;;;;;;395.15;71.53;;;;;;;;;;5070485;28;20204;-69
2021/12/14 08:36:23;;;;;;;390.80;69.72;;;;;;;;;;5070726;28;20216;-66
2021/12/14 08:39:01;;;;;;;385.83;69.03;;;;;;;;;;5064141;28;20613;-67
2021/12/14 08:41:30;;;;;;;380.15;67.25;;;;;;;;;;5064765;28;20214;-68
2021/12/14 08:44:00;;;;;;;387.13;68.20;;;;;;;;;;5063770;28;20691;-66
2021/12/14 08:46:29;;;;;;;383.23;69.50;;;;;;;;;;5070523;28;20207;-67
2021/12/14 08:48:58;;;;;;;388.20;70.93;;;;;;;;;;5070592;28;20243;-67
2021/12/14 08:51:27;;;;;;;384.75;69.82;;;;;;;;;;5070843;28;20240;-67
2021/12/14 08:53:56;;;;;;;400.83;75.38;;;;;;;;;;5070246;28;20219;-66
2021/12/14 08:56:24;;;;;;;386.35;68.07;;;;;;;;;;5070638;28;20208;-67
2021/12/14 08:58:53;;;;;;;383.85;68.68;;;;;;;;;;5070435;28;20319;-66
2021/12/14 09:01:22;;;;;;;389.92;69.18;;;;;;;;;;5070138;28;20210;-67
2021/12/14 09:03:54;;;;;;;393.45;75.82;;;;;;;;;;5072494;28;20750;-67
2021/12/14 09:06:23;;;;;;;385.63;67.30;;;;;;;;;;5074344;28;20270;-66
2021/12/14 09:08:51;;;;;;;380.23;68.85;;;;;;;;;;5074571;28;20299;-67
2021/12/14 09:11:21;;;;;;;390.27;70.47;;;;;;;;;;5074202;28;20297;-67
2021/12/14 09:13:51;;;;;;;394.92;74.68;;;;;;;;;;5074075;28;20236;-66
2021/12/14 09:16:23;;;;;;;394.88;70.40;;;;;;;;;;5067531;28;20248;-67
2021/12/14 09:18:52;;;;;;;387.13;68.38;;;;;;;;;;5074351;28;20335;-66
2021/12/14 09:21:23;;;;;;;392.20;69.15;;;;;;;;;;5074279;28;20212;-67
2021/12/14 09:23:52;;;;;;;386.63;73.13;;;;;;;;;;5073835;28;20218;-67
2021/12/14 09:26:21;;;;;;;395.55;71.22;;;;;;;;;;5073944;28;20681;-68
2021/12/14 09:28:52;;;;;;;381.73;67.50;;;;;;;;;;5073945;28;20687;-66
2021/12/14 09:31:22;;;;;;;394.67;70.05;;;;;;;;;;5074005;28;20688;-67
2021/12/14 09:33:50;;;;;;;393.45;74.72;;;;;;;;;;5073708;28;20201;-68
2021/12/14 09:36:17;;;;;;;385.27;69.43;;;;;;;;;;5073845;28;20207;-66
2021/12/14 09:38:46;;;;;;;397.17;71.00;;;;;;;;;;5073567;28;20232;-67
2021/12/14 09:41:15;;;;;;;388.15;69.97;;;;;;;;;;5073749;28;20748;-67
2021/12/14 09:43:45;;;;;;;388.10;69.38;;;;;;;;;;5073468;28;20673;-67
2021/12/14 09:46:13;;;;;;;387.73;68.45;;;;;;;;;;5067384;28;20287;-67
2021/12/14 09:48:44;;;;;;;390.30;70.97;;;;;;;;;;5073600;28;20208;-67
2021/12/14 09:51:13;;;;;;;386.95;70.78;;;;;;;;;;5073426;28;20214;-67
2021/12/14 09:53:42;;;;;;;391.67;70.57;;;;;;;;;;5073527;28;20291;-67
2021/12/14 09:56:10;;;;;;;397.38;71.05;;;;;;;;;;5073895;28;20233;-66
2021/12/14 09:58:40;;;;;;;374.30;68.82;;;;;;;;;;5073455;28;20266;-67
2021/12/14 10:01:10;;;;;;;389.63;70.95;;;;;;;;;;5073641;28;20244;-67
2021/12/14 10:03:38;;;;;;;400.98;73.75;;;;;;;;;;5072885;28;20231;-66
2021/12/14 10:06:08;;;;;;;383.85;69.25;;;;;;;;;;5073380;28;20219;-66
2021/12/14 10:08:37;;;;;;;384.27;70.40;;;;;;;;;;5073116;28;20211;-66
2021/12/14 10:11:08;;;;;;;361.63;67.65;;;;;;;;;;5072899;28;20728;-66
2021/12/14 10:13:38;;;;;;;388.27;70.60;;;;;;;;;;5073118;28;20204;-67
2021/12/14 10:16:07;;;;;;;323.63;65.40;;;;;;;;;;5065952;28;20212;-67
2021/12/14 10:18:36;;;;;;;347.00;66.82;;;;;;;;;;5065981;28;20209;-67
2021/12/14 10:21:06;;;;;;;389.33;71.07;;;;;;;;;;5073158;28;20211;-66
2021/12/14 10:23:36;;;;;;;394.30;70.40;;;;;;;;;;5072936;28;20209;-68
2021/12/14 10:26:05;;;;;;;403.27;72.10;;;;;;;;;;5072880;28;20215;-68
2021/12/14 10:28:33;;;;;;;401.95;72.47;;;;;;;;;;5072874;28;20236;-67
2021/12/14 10:31:02;;;;;;;391.90;69.65;;;;;;;;;;5073337;28;20315;-67
2021/12/14 10:33:33;;;;;;;399.83;71.70;;;;;;;;;;5072674;28;20205;-68
2021/12/14 10:36:04;;;;;;;399.48;69.93;;;;;;;;;;5072620;28;20224;-67
2021/12/14 10:38:38;;;;;;;404.75;71.07;;;;;;;;;;5072940;28;20230;-67
2021/12/14 10:43:56;;;;;;;410.60;76.65;;;;;;;;;;5072496;28;20207;-66
2021/12/14 10:46:25;;;;;;;391.10;71.15;;;;;;;;;;5072475;28;20211;-67
2021/12/14 10:48:53;;;;;;;396.55;71.20;;;;;;;;;;5072587;28;20658;-66
2021/12/14 10:51:22;;;;;;;401.00;73.13;;;;;;;;;;5072372;28;20223;-67
2021/12/14 10:53:53;;;;;;;411.77;75.93;;;;;;;;;;5072327;28;20209;-69
2021/12/14 10:56:24;;;;;;;406.65;72.28;;;;;;;;;;5072503;28;20310;-67
2021/12/14 10:58:53;;;;;;;397.48;70.30;;;;;;;;;;5072365;28;20243;-67
2021/12/14 11:01:25;;;;;;;400.08;71.22;;;;;;;;;;5072252;28;20296;-68
2021/12/14 11:03:56;;;;;;;402.30;73.57;;;;;;;;;;5066040;28;20208;-66
2021/12/14 11:06:28;;;;;;;399.27;69.60;;;;;;;;;;5066499;28;20236;-67
2021/12/14 11:09:38;;;;;;;408.08;73.53;;;;;;;;;;5072452;28;20204;-67
2021/12/14 11:11:50;;;;;;;387.02;69.43;;;;;;;;;;5071673;28;20297;-67
2021/12/14 11:14:19;;;;;;;395.02;69.65;;;;;;;;;;5072046;28;20651;-67
2021/12/14 11:19:38;;;;;;;382.00;68.22;;;;;;;;;;5071882;28;20365;-67
2021/12/14 11:22:12;;;;;;;395.20;70.63;;;;;;;;;;5072032;28;20209;-67
2021/12/14 11:24:40;;;;;;;391.05;68.45;;;;;;;;;;5071872;28;20214;-69
2021/12/14 11:27:14;;;;;;;387.58;71.20;;;;;;;;;;5071240;28;20205;-66
2021/12/14 11:29:41;;;;;;;389.75;74.95;;;;;;;;;;5071427;28;20211;-66
2021/12/14 11:32:09;;;;;;;398.80;70.80;;;;;;;;;;5071635;28;20204;-67
2021/12/14 11:34:39;;;;;;;368.73;66.85;;;;;;;;;;5071721;28;20629;-66
2021/12/14 11:37:09;;;;;;;386.40;69.55;;;;;;;;;;5065129;28;20211;-66
2021/12/14 11:39:38;;;;;;;378.27;67.85;;;;;;;;;;5071254;28;20233;-67
2021/12/14 11:42:07;;;;;;;375.10;66.78;;;;;;;;;;5071720;28;20212;-67
2021/12/14 11:44:37;;;;;;;384.95;67.30;;;;;;;;;;5071282;28;20240;-67
2021/12/14 11:47:12;;;;;;;379.85;67.68;;;;;;;;;;5071371;28;20227;-66
2021/12/14 11:49:42;;;;;;;376.50;69.65;;;;;;;;;;5071143;28;20216;-67
2021/12/14 11:52:10;;;;;;;363.23;66.43;;;;;;;;;;5071211;28;20200;-67
2021/12/14 11:54:41;;;;;;;372.40;66.40;;;;;;;;;;5071719;28;20239;-66
2021/12/14 11:57:09;;;;;;;347.05;64.25;;;;;;;;;;5071200;28;20212;-68
2021/12/14 11:59:38;;;;;;;319.20;63.30;;;;;;;;;;5071321;28;20704;-66
2021/12/14 12:02:06;;;;;;;351.13;66.68;;;;;;;;;;5070807;28;20618;-67
2021/12/14 12:04:35;;;;;;;319.92;64.32;;;;;;;;;;5070844;28;20209;-67
2021/12/14 12:09:52;;;;;;;339.00;69.78;;;;;;;;;;5070741;28;20259;-68
2021/12/14 12:12:22;;;;;;;365.02;68.20;;;;;;;;;;5071064;28;20216;-68
2021/12/14 12:14:55;;;;;;;389.90;73.57;;;;;;;;;;5070923;28;20214;-67
2021/12/14 12:17:25;;;;;;;413.13;73.68;;;;;;;;;;5071187;28;20294;-66
2021/12/14 12:19:56;;;;;;;408.67;77.72;;;;;;;;;;5070762;28;20224;-67
2021/12/14 12:22:23;;;;;;;406.10;72.47;;;;;;;;;;5064656;28;20261;-66
2021/12/14 12:24:53;;;;;;;395.80;74.95;;;;;;;;;;5070744;28;20211;-67
2021/12/14 12:27:30;;;;;;;408.42;74.20;;;;;;;;;;5070705;28;20208;-67
2021/12/14 12:30:25;;;;;;;403.52;74.20;;;;;;;;;;5070821;28;20204;-66
2021/12/14 12:32:54;;;;;;;375.83;68.60;;;;;;;;;;5066601;28;20216;-66
2021/12/14 12:35:23;;;;;;;393.38;69.90;;;;;;;;;;5070699;28;20201;-67
2021/12/14 12:37:51;;;;;;;400.48;76.25;;;;;;;;;;5069752;28;20216;-67
2021/12/14 12:40:20;;;;;;;374.63;69.10;;;;;;;;;;5070820;28;20225;-66
2021/12/14 12:42:48;;;;;;;354.90;66.55;;;;;;;;;;5070873;28;20648;-66
2021/12/14 12:45:25;;;;;;;400.73;72.72;;;;;;;;;;5070751;28;20296;-67
2021/12/14 12:47:54;;;;;;;391.88;73.50;;;;;;;;;;5070495;28;20218;-66
2021/12/14 12:50:28;;;;;;;363.90;67.25;;;;;;;;;;5070429;28;20635;-67
2021/12/14 12:52:55;;;;;;;357.23;66.07;;;;;;;;;;5070498;28;20204;-67
2021/12/14 12:55:30;;;;;;;363.55;68.82;;;;;;;;;;5070443;28;20224;-67
2021/12/14 12:58:10;;;;;;;360.55;66.63;;;;;;;;;;5070372;28;20204;-66
2021/12/14 13:00:41;;;;;;;358.30;67.30;;;;;;;;;;5070342;28;20259;-67
2021/12/14 13:03:12;;;;;;;361.90;67.38;;;;;;;;;;5070405;28;20798;-67
2021/12/14 13:05:43;;;;;;;371.67;68.65;;;;;;;;;;5070436;28;20594;-67
2021/12/14 13:08:14;;;;;;;361.83;67.22;;;;;;;;;;5070516;28;20669;-68
2021/12/14 13:10:43;;;;;;;370.20;67.90;;;;;;;;;;5070044;28;20232;-67
2021/12/14 13:13:12;;;;;;;374.70;70.78;;;;;;;;;;5070275;28;20236;-68
2021/12/14 13:15:45;;;;;;;367.60;67.75;;;;;;;;;;5070386;28;20217;-67
2021/12/14 13:18:18;;;;;;;331.33;66.05;;;;;;;;;;5070362;28;20208;-67
2021/12/14 13:20:47;;;;;;;338.52;66.00;;;;;;;;;;5070393;28;20268;-66
2021/12/14 13:23:14;;;;;;;348.40;68.45;;;;;;;;;;5070385;28;20273;-67
2021/12/14 13:25:43;;;;;;;348.48;70.63;;;;;;;;;;5069979;28;20232;-67
2021/12/14 13:28:11;;;;;;;350.20;66.07;;;;;;;;;;5070536;28;20206;-68
2021/12/14 13:30:39;;;;;;;332.90;65.18;;;;;;;;;;5070466;28;20205;-66
2021/12/14 13:33:24;;;;;;;350.08;67.10;;;;;;;;;;5070161;28;20737;-67
2021/12/14 13:35:52;;;;;;;341.67;69.43;;;;;;;;;;5069919;28;20665;-67
2021/12/14 13:38:20;;;;;;;346.67;66.18;;;;;;;;;;5063426;28;20201;-67
2021/12/14 13:40:50;;;;;;;343.55;65.70;;;;;;;;;;5070225;28;20256;-66
2021/12/14 13:43:36;;;;;;;343.23;68.65;;;;;;;;;;5069784;28;20288;-68
2021/12/14 13:46:05;;;;;;;344.90;66.25;;;;;;;;;;5063637;28;20293;-67
2021/12/14 13:48:34;;;;;;;346.17;66.60;;;;;;;;;;5070069;28;20220;-67
2021/12/14 13:51:06;;;;;;;351.10;65.80;;;;;;;;;;5073511;28;20200;-67
2021/12/14 13:53:34;;;;;;;341.33;67.10;;;;;;;;;;5073552;28;20231;-67
2021/12/14 13:56:04;;;;;;;339.35;63.53;;;;;;;;;;5073196;28;20662;-67
2021/12/14 13:58:33;;;;;;;395.85;68.97;;;;;;;;;;5073471;28;20208;-67
2021/12/14 14:01:02;;;;;;;376.75;68.63;;;;;;;;;;5073207;28;20224;-67
2021/12/14 14:03:31;;;;;;;397.40;69.72;;;;;;;;;;5073512;28;20679;-68
2021/12/14 14:05:59;;;;;;;400.17;69.97;;;;;;;;;;5073026;28;20665;-66
2021/12/14 14:08:33;;;;;;;403.45;70.82;;;;;;;;;;5073106;28;20211;-66
2021/12/14 14:11:00;;;;;;;395.98;69.85;;;;;;;;;;5072967;28;20327;-68
2021/12/14 14:13:30;;;;;;;392.90;67.50;;;;;;;;;;5073186;28;20204;-67
2021/12/14 14:15:59;;;;;;;392.15;68.47;;;;;;;;;;5073536;28;20323;-67
2021/12/14 14:18:28;;;;;;;350.90;66.20;;;;;;;;;;5073332;28;20230;-67
2021/12/14 14:20:55;;;;;;;354.95;65.80;;;;;;;;;;5073079;28;20235;-67
2021/12/14 14:23:25;;;;;;;366.58;66.57;;;;;;;;;;5073116;28;20232;-66
2021/12/14 14:25:57;;;;;;;351.17;68.70;;;;;;;;;;5072716;28;20215;-66
2021/12/14 14:28:33;;;;;;;376.75;66.97;;;;;;;;;;5072847;28;20215;-67
2021/12/14 14:31:01;;;;;;;396.40;69.90;;;;;;;;;;5072762;28;20211;-69
2021/12/14 14:33:33;;;;;;;383.95;68.90;;;;;;;;;;5073068;28;20749;-67
2021/12/14 14:36:02;;;;;;;380.23;67.65;;;;;;;;;;5072686;28;20230;-67
2021/12/14 14:38:31;;;;;;;353.65;65.78;;;;;;;;;;5072653;28;20215;-68
2021/12/14 14:41:01;;;;;;;389.40;68.90;;;;;;;;;;5072869;28;20584;-67
2021/12/14 14:43:43;;;;;;;381.02;69.30;;;;;;;;;;5072995;28;20205;-67
2021/12/14 14:46:10;;;;;;;393.15;70.25;;;;;;;;;;5064127;28;20573;-68